sensor_id;sensor_type;location;lat;lon;timestamp;temperature;humidity
76102;SHT30;64830;46.910;6.354;2024-03-23T00:54:27;11.94;65.41
76102;SHT30;64830;46.910;6.354;2024-03-23T00:56:52;12.01;64.92
76102;SHT30;64830;46.910;6.354;2024-03-23T00:59:21;12.01;64.82
76102;SHT30;64830;46.910;6.354;2024-03-23T01:01:47;12.02;64.32
76102;SHT30;64830;46.910;6.354;2024-03-23T01:04:13;12.05;64.60
76102;SHT30;64830;46.910;6.354;2024-03-23T01:06:38;12.04;64.26
76102;SHT30;64830;46.910;6.354;2024-03-23T01:09:03;12.04;64.11
76102;SHT30;64830;46.910;6.354;2024-03-23T01:11:29;12.07;64.05
76102;SHT30;64830;46.910;6.354;2024-03-23T01:13:54;12.04;64.66
76102;SHT30;64830;46.910;6.354;2024-03-23T01:16:21;12.00;64.68
76102;SHT30;64830;46.910;6.354;2024-03-23T01:18:46;11.95;64.55
76102;SHT30;64830;46.910;6.354;2024-03-23T01:21:12;11.95;64.14
76102;SHT30;64830;46.910;6.354;2024-03-23T01:23:37;11.90;64.52
76102;SHT30;64830;46.910;6.354;2024-03-23T01:26:03;11.87;64.57
76102;SHT30;64830;46.910;6.354;2024-03-23T01:28:28;11.79;64.82
76102;SHT30;64830;46.910;6.354;2024-03-23T01:30:53;11.80;64.59
76102;SHT30;64830;46.910;6.354;2024-03-23T01:33:19;11.79;64.73
76102;SHT30;64830;46.910;6.354;2024-03-23T01:35:44;11.76;64.84
76102;SHT30;64830;46.910;6.354;2024-03-23T01:38:10;11.79;64.66
76102;SHT30;64830;46.910;6.354;2024-03-23T01:40:35;11.77;64.85
76102;SHT30;64830;46.910;6.354;2024-03-23T01:43:08;11.77;64.52
76102;SHT30;64830;46.910;6.354;2024-03-23T01:45:34;11.77;64.53
76102;SHT30;64830;46.910;6.354;2024-03-23T01:48:00;11.81;64.66
76102;SHT30;64830;46.910;6.354;2024-03-23T01:50:26;11.84;64.64
76102;SHT30;64830;46.910;6.354;2024-03-23T01:52:52;11.84;64.71
76102;SHT30;64830;46.910;6.354;2024-03-23T01:55:18;11.87;64.99
76102;SHT30;64830;46.910;6.354;2024-03-23T01:57:43;11.89;65.11
76102;SHT30;64830;46.910;6.354;2024-03-23T02:00:12;11.91;65.32
76102;SHT30;64830;46.910;6.354;2024-03-23T02:02:44;11.90;65.48
76102;SHT30;64830;46.910;6.354;2024-03-23T02:05:11;11.93;65.69
76102;SHT30;64830;46.910;6.354;2024-03-23T02:07:41;11.94;65.74
76102;SHT30;64830;46.910;6.354;2024-03-23T02:10:07;11.94;65.82
76102;SHT30;64830;46.910;6.354;2024-03-23T02:12:33;11.93;65.90
76102;SHT30;64830;46.910;6.354;2024-03-23T02:14:59;11.93;65.84
76102;SHT30;64830;46.910;6.354;2024-03-23T02:17:29;11.93;65.54
76102;SHT30;64830;46.910;6.354;2024-03-23T02:19:55;11.93;64.93
76102;SHT30;64830;46.910;6.354;2024-03-23T02:22:20;11.93;64.53
76102;SHT30;64830;46.910;6.354;2024-03-23T02:24:46;11.94;64.37
76102;SHT30;64830;46.910;6.354;2024-03-23T02:27:12;11.93;63.98
76102;SHT30;64830;46.910;6.354;2024-03-23T02:29:37;11.90;63.59
76102;SHT30;64830;46.910;6.354;2024-03-23T02:32:03;11.93;63.53
76102;SHT30;64830;46.910;6.354;2024-03-23T02:34:28;11.94;62.15
76102;SHT30;64830;46.910;6.354;2024-03-23T02:36:53;11.94;62.91
76102;SHT30;64830;46.910;6.354;2024-03-23T02:39:19;11.97;62.64
76102;SHT30;64830;46.910;6.354;2024-03-23T02:41:44;12.00;62.50
76102;SHT30;64830;46.910;6.354;2024-03-23T02:44:10;12.00;62.71
76102;SHT30;64830;46.910;6.354;2024-03-23T02:46:38;12.00;62.82
76102;SHT30;64830;46.910;6.354;2024-03-23T02:49:03;12.01;62.60
76102;SHT30;64830;46.910;6.354;2024-03-23T02:51:30;12.04;63.05
76102;SHT30;64830;46.910;6.354;2024-03-23T02:53:55;12.07;63.27
76102;SHT30;64830;46.910;6.354;2024-03-23T02:56:21;12.10;63.21
76102;SHT30;64830;46.910;6.354;2024-03-23T02:58:46;12.08;63.26
76102;SHT30;64830;46.910;6.354;2024-03-23T03:01:12;12.13;63.43
76102;SHT30;64830;46.910;6.354;2024-03-23T03:03:37;12.11;63.39
76102;SHT30;64830;46.910;6.354;2024-03-23T03:06:03;12.14;63.48
76102;SHT30;64830;46.910;6.354;2024-03-23T03:08:29;12.17;63.50
76102;SHT30;64830;46.910;6.354;2024-03-23T03:10:54;12.17;63.60
76102;SHT30;64830;46.910;6.354;2024-03-23T03:13:20;12.18;63.76
76102;SHT30;64830;46.910;6.354;2024-03-23T03:15:45;12.17;63.92
76102;SHT30;64830;46.910;6.354;2024-03-23T03:18:10;12.18;64.19
76102;SHT30;64830;46.910;6.354;2024-03-23T03:20:41;12.17;64.47
76102;SHT30;64830;46.910;6.354;2024-03-23T03:23:07;12.18;64.64
76102;SHT30;64830;46.910;6.354;2024-03-23T03:25:33;12.17;65.24
76102;SHT30;64830;46.910;6.354;2024-03-23T03:27:59;12.18;65.13
76102;SHT30;64830;46.910;6.354;2024-03-23T03:30:24;12.14;65.39
76102;SHT30;64830;46.910;6.354;2024-03-23T03:32:53;12.15;65.52
76102;SHT30;64830;46.910;6.354;2024-03-23T03:35:18;12.18;65.91
76102;SHT30;64830;46.910;6.354;2024-03-23T03:37:44;12.17;66.31
76102;SHT30;64830;46.910;6.354;2024-03-23T03:40:10;12.17;67.54
76102;SHT30;64830;46.910;6.354;2024-03-23T03:42:36;12.11;68.68
76102;SHT30;64830;46.910;6.354;2024-03-23T03:45:02;12.00;69.37
76102;SHT30;64830;46.910;6.354;2024-03-23T03:47:29;11.89;69.75
76102;SHT30;64830;46.910;6.354;2024-03-23T03:49:55;11.81;70.18
76102;SHT30;64830;46.910;6.354;2024-03-23T03:52:20;11.72;71.09
76102;SHT30;64830;46.910;6.354;2024-03-23T03:54:45;11.65;71.08
76102;SHT30;64830;46.910;6.354;2024-03-23T03:57:14;11.52;72.98
76102;SHT30;64830;46.910;6.354;2024-03-23T03:59:39;11.46;73.01
76102;SHT30;64830;46.910;6.354;2024-03-23T04:02:05;11.34;74.26
76102;SHT30;64830;46.910;6.354;2024-03-23T04:04:30;11.19;74.54
76102;SHT30;64830;46.910;6.354;2024-03-23T04:07:02;11.08;75.48
76102;SHT30;64830;46.910;6.354;2024-03-23T04:09:28;10.97;75.92
76102;SHT30;64830;46.910;6.354;2024-03-23T04:11:53;10.83;75.75
76102;SHT30;64830;46.910;6.354;2024-03-23T04:14:21;10.67;76.95
76102;SHT30;64830;46.910;6.354;2024-03-23T04:16:46;10.49;77.07
76102;SHT30;64830;46.910;6.354;2024-03-23T04:19:12;10.38;77.65
76102;SHT30;64830;46.910;6.354;2024-03-23T04:21:38;10.31;77.42
76102;SHT30;64830;46.910;6.354;2024-03-23T04:24:04;10.21;77.73
76102;SHT30;64830;46.910;6.354;2024-03-23T04:26:30;10.18;76.88
76102;SHT30;64830;46.910;6.354;2024-03-23T04:28:55;10.15;77.36
76102;SHT30;64830;46.910;6.354;2024-03-23T04:31:21;10.05;78.02
76102;SHT30;64830;46.910;6.354;2024-03-23T04:33:47;10.01;78.62
76102;SHT30;64830;46.910;6.354;2024-03-23T04:36:12;9.91;78.47
76102;SHT30;64830;46.910;6.354;2024-03-23T04:38:38;9.89;77.66
76102;SHT30;64830;46.910;6.354;2024-03-23T04:41:03;9.87;78.50
76102;SHT30;64830;46.910;6.354;2024-03-23T04:43:29;9.77;79.10
76102;SHT30;64830;46.910;6.354;2024-03-23T04:45:55;9.74;78.97
76102;SHT30;64830;46.910;6.354;2024-03-23T04:48:21;9.72;79.69
76102;SHT30;64830;46.910;6.354;2024-03-23T04:50:57;9.69;79.08
76102;SHT30;64830;46.910;6.354;2024-03-23T04:53:24;9.65;79.66
76102;SHT30;64830;46.910;6.354;2024-03-23T04:55:54;9.60;79.33
76102;SHT30;64830;46.910;6.354;2024-03-23T04:58:20;9.55;79.74
76102;SHT30;64830;46.910;6.354;2024-03-23T05:00:45;9.49;80.23
76102;SHT30;64830;46.910;6.354;2024-03-23T05:03:11;9.42;80.47
76102;SHT30;64830;46.910;6.354;2024-03-23T05:05:36;9.39;79.97
76102;SHT30;64830;46.910;6.354;2024-03-23T05:08:02;9.34;80.05
76102;SHT30;64830;46.910;6.354;2024-03-23T05:10:37;9.27;79.99
76102;SHT30;64830;46.910;6.354;2024-03-23T05:13:03;9.21;79.68
76102;SHT30;64830;46.910;6.354;2024-03-23T05:15:28;9.15;79.17
76102;SHT30;64830;46.910;6.354;2024-03-23T05:17:55;9.07;79.36
76102;SHT30;64830;46.910;6.354;2024-03-23T05:20:23;9.05;79.44
76102;SHT30;64830;46.910;6.354;2024-03-23T05:22:49;8.99;80.94
76102;SHT30;64830;46.910;6.354;2024-03-23T05:25:24;8.88;82.27
76102;SHT30;64830;46.910;6.354;2024-03-23T05:27:49;8.72;82.79
76102;SHT30;64830;46.910;6.354;2024-03-23T05:30:15;8.62;82.37
76102;SHT30;64830;46.910;6.354;2024-03-23T05:32:40;8.56;82.72
76102;SHT30;64830;46.910;6.354;2024-03-23T05:35:07;8.55;82.20
76102;SHT30;64830;46.910;6.354;2024-03-23T05:37:33;8.46;83.08
76102;SHT30;64830;46.910;6.354;2024-03-23T05:40:05;8.45;83.33
76102;SHT30;64830;46.910;6.354;2024-03-23T05:42:33;8.37;83.32
76102;SHT30;64830;46.910;6.354;2024-03-23T05:45:01;8.30;83.57
76102;SHT30;64830;46.910;6.354;2024-03-23T05:47:27;8.30;83.61
76102;SHT30;64830;46.910;6.354;2024-03-23T05:49:52;8.20;83.93
76102;SHT30;64830;46.910;6.354;2024-03-23T05:52:18;8.17;84.24
76102;SHT30;64830;46.910;6.354;2024-03-23T05:54:43;8.15;84.52
76102;SHT30;64830;46.910;6.354;2024-03-23T05:57:09;8.14;84.75
76102;SHT30;64830;46.910;6.354;2024-03-23T05:59:34;8.13;84.68
76102;SHT30;64830;46.910;6.354;2024-03-23T06:02:00;8.10;84.94
76102;SHT30;64830;46.910;6.354;2024-03-23T06:04:25;8.08;85.04
76102;SHT30;64830;46.910;6.354;2024-03-23T06:06:51;8.08;85.41
76102;SHT30;64830;46.910;6.354;2024-03-23T06:09:19;8.03;85.72
76102;SHT30;64830;46.910;6.354;2024-03-23T06:11:45;8.01;85.48
76102;SHT30;64830;46.910;6.354;2024-03-23T06:14:11;7.98;85.61
76102;SHT30;64830;46.910;6.354;2024-03-23T06:16:36;7.94;85.96
76102;SHT30;64830;46.910;6.354;2024-03-23T06:19:02;7.94;85.49
76102;SHT30;64830;46.910;6.354;2024-03-23T06:21:29;7.93;85.71
76102;SHT30;64830;46.910;6.354;2024-03-23T06:23:55;7.96;85.64
76102;SHT30;64830;46.910;6.354;2024-03-23T06:26:21;7.96;85.62
76102;SHT30;64830;46.910;6.354;2024-03-23T06:28:47;8.00;85.41
76102;SHT30;64830;46.910;6.354;2024-03-23T06:31:13;7.98;85.61
76102;SHT30;64830;46.910;6.354;2024-03-23T06:33:38;8.00;85.54
76102;SHT30;64830;46.910;6.354;2024-03-23T06:36:05;7.96;86.44
76102;SHT30;64830;46.910;6.354;2024-03-23T06:38:30;7.76;82.07
76102;SHT30;64830;46.910;6.354;2024-03-23T06:40:56;7.54;83.39
76102;SHT30;64830;46.910;6.354;2024-03-23T06:43:21;7.38;82.99
76102;SHT30;64830;46.910;6.354;2024-03-23T06:45:53;7.27;83.73
76102;SHT30;64830;46.910;6.354;2024-03-23T06:48:19;7.21;84.63
76102;SHT30;64830;46.910;6.354;2024-03-23T06:50:45;7.17;84.55
76102;SHT30;64830;46.910;6.354;2024-03-23T06:53:14;7.11;83.99
76102;SHT30;64830;46.910;6.354;2024-03-23T06:55:40;7.00;83.84
76102;SHT30;64830;46.910;6.354;2024-03-23T06:58:06;6.96;83.99
76102;SHT30;64830;46.910;6.354;2024-03-23T07:00:32;6.95;84.64
76102;SHT30;64830;46.910;6.354;2024-03-23T07:02:58;6.90;84.14
76102;SHT30;64830;46.910;6.354;2024-03-23T07:05:24;6.87;84.07
76102;SHT30;64830;46.910;6.354;2024-03-23T07:07:49;6.76;84.50
76102;SHT30;64830;46.910;6.354;2024-03-23T07:10:15;6.68;84.87
76102;SHT30;64830;46.910;6.354;2024-03-23T07:12:40;6.62;85.53
76102;SHT30;64830;46.910;6.354;2024-03-23T07:15:06;6.61;85.16
76102;SHT30;64830;46.910;6.354;2024-03-23T07:17:32;6.49;85.97
76102;SHT30;64830;46.910;6.354;2024-03-23T07:19:58;6.45;85.96
76102;SHT30;64830;46.910;6.354;2024-03-23T07:22:23;6.44;86.36
76102;SHT30;64830;46.910;6.354;2024-03-23T07:24:49;6.40;85.95
76102;SHT30;64830;46.910;6.354;2024-03-23T07:27:14;6.35;85.91
76102;SHT30;64830;46.910;6.354;2024-03-23T07:29:40;6.33;85.37
76102;SHT30;64830;46.910;6.354;2024-03-23T07:32:05;6.28;86.34
76102;SHT30;64830;46.910;6.354;2024-03-23T07:34:31;6.27;85.37
76102;SHT30;64830;46.910;6.354;2024-03-23T07:36:56;6.27;85.56
76102;SHT30;64830;46.910;6.354;2024-03-23T07:39:22;6.25;84.79
76102;SHT30;64830;46.910;6.354;2024-03-23T07:41:47;6.27;84.63
76102;SHT30;64830;46.910;6.354;2024-03-23T07:44:13;6.17;84.20
76102;SHT30;64830;46.910;6.354;2024-03-23T07:46:38;6.03;83.58
76102;SHT30;64830;46.910;6.354;2024-03-23T07:49:07;5.93;84.18
76102;SHT30;64830;46.910;6.354;2024-03-23T07:51:32;5.85;84.47
76102;SHT30;64830;46.910;6.354;2024-03-23T07:53:58;5.76;83.38
76102;SHT30;64830;46.910;6.354;2024-03-23T07:56:24;5.62;83.60
76102;SHT30;64830;46.910;6.354;2024-03-23T07:58:49;5.45;82.80
76102;SHT30;64830;46.910;6.354;2024-03-23T08:01:16;5.34;82.83
76102;SHT30;64830;46.910;6.354;2024-03-23T08:03:43;5.30;82.75
76102;SHT30;64830;46.910;6.354;2024-03-23T08:06:09;5.27;82.55
76102;SHT30;64830;46.910;6.354;2024-03-23T08:08:35;5.26;83.13
76102;SHT30;64830;46.910;6.354;2024-03-23T08:11:00;5.28;82.97
76102;SHT30;64830;46.910;6.354;2024-03-23T08:13:26;5.30;82.98
76102;SHT30;64830;46.910;6.354;2024-03-23T08:15:55;5.27;83.25
76102;SHT30;64830;46.910;6.354;2024-03-23T08:18:21;5.24;83.97
76102;SHT30;64830;46.910;6.354;2024-03-23T08:20:47;5.27;84.36
76102;SHT30;64830;46.910;6.354;2024-03-23T08:23:12;5.27;84.99
76102;SHT30;64830;46.910;6.354;2024-03-23T08:25:37;5.27;84.59
76102;SHT30;64830;46.910;6.354;2024-03-23T08:28:03;5.31;84.75
76102;SHT30;64830;46.910;6.354;2024-03-23T08:30:29;5.37;84.43
76102;SHT30;64830;46.910;6.354;2024-03-23T08:32:55;5.38;84.41
76102;SHT30;64830;46.910;6.354;2024-03-23T08:35:20;5.40;85.02
76102;SHT30;64830;46.910;6.354;2024-03-23T08:37:45;5.33;82.16
76102;SHT30;64830;46.910;6.354;2024-03-23T08:40:12;5.31;80.52
76102;SHT30;64830;46.910;6.354;2024-03-23T08:42:37;5.28;80.94
76102;SHT30;64830;46.910;6.354;2024-03-23T08:45:03;5.19;79.67
76102;SHT30;64830;46.910;6.354;2024-03-23T08:47:28;5.22;80.84
76102;SHT30;64830;46.910;6.354;2024-03-23T08:49:54;5.24;80.47
76102;SHT30;64830;46.910;6.354;2024-03-23T08:52:20;5.23;79.51
76102;SHT30;64830;46.910;6.354;2024-03-23T08:54:48;5.22;79.69
76102;SHT30;64830;46.910;6.354;2024-03-23T08:57:14;5.19;79.96
76102;SHT30;64830;46.910;6.354;2024-03-23T08:59:39;5.20;80.83
76102;SHT30;64830;46.910;6.354;2024-03-23T09:02:05;5.27;80.76
76102;SHT30;64830;46.910;6.354;2024-03-23T09:04:30;5.34;80.74
76102;SHT30;64830;46.910;6.354;2024-03-23T09:06:56;5.37;80.03
76102;SHT30;64830;46.910;6.354;2024-03-23T09:09:22;5.27;76.13
76102;SHT30;64830;46.910;6.354;2024-03-23T09:11:48;5.24;77.59
76102;SHT30;64830;46.910;6.354;2024-03-23T09:14:13;5.35;78.63
76102;SHT30;64830;46.910;6.354;2024-03-23T09:16:39;5.41;76.89
76102;SHT30;64830;46.910;6.354;2024-03-23T09:19:04;5.44;77.96
76102;SHT30;64830;46.910;6.354;2024-03-23T09:21:29;5.54;76.21
76102;SHT30;64830;46.910;6.354;2024-03-23T09:23:55;5.62;76.80
76102;SHT30;64830;46.910;6.354;2024-03-23T09:26:20;5.62;71.94
76102;SHT30;64830;46.910;6.354;2024-03-23T09:28:48;5.63;73.66
76102;SHT30;64830;46.910;6.354;2024-03-23T09:31:14;5.76;74.18
76102;SHT30;64830;46.910;6.354;2024-03-23T09:33:40;5.90;73.33
76102;SHT30;64830;46.910;6.354;2024-03-23T09:36:07;6.02;69.65
76102;SHT30;64830;46.910;6.354;2024-03-23T09:38:33;6.03;69.99
76102;SHT30;64830;46.910;6.354;2024-03-23T09:40:58;6.06;71.66
76102;SHT30;64830;46.910;6.354;2024-03-23T09:43:28;6.03;68.63
76102;SHT30;64830;46.910;6.354;2024-03-23T09:45:53;6.02;70.45
76102;SHT30;64830;46.910;6.354;2024-03-23T09:48:19;6.02;70.47
76102;SHT30;64830;46.910;6.354;2024-03-23T09:50:45;5.93;70.56
76102;SHT30;64830;46.910;6.354;2024-03-23T09:53:13;5.85;70.45
76102;SHT30;64830;46.910;6.354;2024-03-23T09:55:42;5.86;71.99
76102;SHT30;64830;46.910;6.354;2024-03-23T09:58:08;5.89;71.69
76102;SHT30;64830;46.910;6.354;2024-03-23T10:00:37;6.06;72.08
76102;SHT30;64830;46.910;6.354;2024-03-23T10:03:04;6.17;71.51
76102;SHT30;64830;46.910;6.354;2024-03-23T10:05:31;6.25;71.35
76102;SHT30;64830;46.910;6.354;2024-03-23T10:07:59;6.25;70.02
76102;SHT30;64830;46.910;6.354;2024-03-23T10:10:26;6.23;69.54
76102;SHT30;64830;46.910;6.354;2024-03-23T10:12:51;6.17;68.00
76102;SHT30;64830;46.910;6.354;2024-03-23T10:15:22;6.10;70.13
76102;SHT30;64830;46.910;6.354;2024-03-23T10:17:49;6.17;71.10
76102;SHT30;64830;46.910;6.354;2024-03-23T10:20:19;6.11;69.83
76102;SHT30;64830;46.910;6.354;2024-03-23T10:22:47;6.18;69.54
76102;SHT30;64830;46.910;6.354;2024-03-23T10:25:13;6.18;67.46
76102;SHT30;64830;46.910;6.354;2024-03-23T10:27:39;6.20;69.04
76102;SHT30;64830;46.910;6.354;2024-03-23T10:30:09;6.21;66.92
76102;SHT30;64830;46.910;6.354;2024-03-23T10:32:35;6.23;67.78
76102;SHT30;64830;46.910;6.354;2024-03-23T10:35:16;6.42;70.57
76102;SHT30;64830;46.910;6.354;2024-03-23T10:37:44;6.48;71.14
76102;SHT30;64830;46.910;6.354;2024-03-23T10:40:11;6.56;71.07
76102;SHT30;64830;46.910;6.354;2024-03-23T10:42:37;6.51;66.77
76102;SHT30;64830;46.910;6.354;2024-03-23T10:57:04;6.59;62.62
76102;SHT30;64830;46.910;6.354;2024-03-23T10:59:31;6.75;62.35
76102;SHT30;64830;46.910;6.354;2024-03-23T11:01:58;6.89;61.89
76102;SHT30;64830;46.910;6.354;2024-03-23T11:06:57;7.08;58.79
76102;SHT30;64830;46.910;6.354;2024-03-23T11:15:02;7.65;60.30
76102;SHT30;64830;46.910;6.354;2024-03-23T11:17:28;7.76;58.12
76102;SHT30;64830;46.910;6.354;2024-03-23T11:20:01;7.79;58.94
76102;SHT30;64830;46.910;6.354;2024-03-23T11:22:45;7.70;60.22
76102;SHT30;64830;46.910;6.354;2024-03-23T11:25:21;7.59;62.28
76102;SHT30;64830;46.910;6.354;2024-03-23T11:27:48;7.41;62.78
76102;SHT30;64830;46.910;6.354;2024-03-23T11:30:24;7.27;63.64
76102;SHT30;64830;46.910;6.354;2024-03-23T11:32:53;7.11;65.05
76102;SHT30;64830;46.910;6.354;2024-03-23T11:35:30;6.95;66.94
76102;SHT30;64830;46.910;6.354;2024-03-23T11:38:07;6.78;67.66
76102;SHT30;64830;46.910;6.354;2024-03-23T11:40:34;6.59;66.66
76102;SHT30;64830;46.910;6.354;2024-03-23T11:43:01;6.44;67.82
76102;SHT30;64830;46.910;6.354;2024-03-23T11:45:27;6.44;68.42
76102;SHT30;64830;46.910;6.354;2024-03-23T11:48:10;6.42;67.61
76102;SHT30;64830;46.910;6.354;2024-03-23T11:50:40;6.51;68.42
76102;SHT30;64830;46.910;6.354;2024-03-23T11:55:50;7.06;65.83
76102;SHT30;64830;46.910;6.354;2024-03-23T11:58:18;7.28;61.08
76102;SHT30;64830;46.910;6.354;2024-03-23T12:00:54;7.38;61.26
76102;SHT30;64830;46.910;6.354;2024-03-23T12:03:20;7.42;62.16
76102;SHT30;64830;46.910;6.354;2024-03-23T12:05:50;7.36;60.47
76102;SHT30;64830;46.910;6.354;2024-03-23T12:08:25;7.38;61.88
76102;SHT30;64830;46.910;6.354;2024-03-23T12:10:52;7.41;62.33
76102;SHT30;64830;46.910;6.354;2024-03-23T12:13:19;7.40;63.47
76102;SHT30;64830;46.910;6.354;2024-03-23T12:15:46;7.35;61.83
76102;SHT30;64830;46.910;6.354;2024-03-23T12:18:11;7.30;62.08
76102;SHT30;64830;46.910;6.354;2024-03-23T12:20:38;7.15;62.83
76102;SHT30;64830;46.910;6.354;2024-03-23T12:23:09;7.21;63.68
76102;SHT30;64830;46.910;6.354;2024-03-23T12:25:39;7.25;63.74
76102;SHT30;64830;46.910;6.354;2024-03-23T12:28:07;7.40;63.10
76102;SHT30;64830;46.910;6.354;2024-03-23T12:30:39;7.55;60.72
76102;SHT30;64830;46.910;6.354;2024-03-23T12:33:04;7.45;58.03
76102;SHT30;64830;46.910;6.354;2024-03-23T12:35:31;7.42;58.43
76102;SHT30;64830;46.910;6.354;2024-03-23T12:37:56;7.41;59.73
76102;SHT30;64830;46.910;6.354;2024-03-23T12:40:25;7.30;59.98
76102;SHT30;64830;46.910;6.354;2024-03-23T12:42:55;7.25;61.47
76102;SHT30;64830;46.910;6.354;2024-03-23T12:45:22;7.25;62.40
76102;SHT30;64830;46.910;6.354;2024-03-23T12:47:49;7.28;62.37
76102;SHT30;64830;46.910;6.354;2024-03-23T12:50:17;7.21;61.34
76102;SHT30;64830;46.910;6.354;2024-03-23T12:52:43;7.07;60.85
76102;SHT30;64830;46.910;6.354;2024-03-23T12:55:11;6.92;62.12
76102;SHT30;64830;46.910;6.354;2024-03-23T12:57:36;6.82;61.86
76102;SHT30;64830;46.910;6.354;2024-03-23T13:00:02;6.79;61.19
76102;SHT30;64830;46.910;6.354;2024-03-23T13:02:29;6.76;61.14
76102;SHT30;64830;46.910;6.354;2024-03-23T13:04:55;6.78;61.00
76102;SHT30;64830;46.910;6.354;2024-03-23T13:07:22;6.83;61.06
76102;SHT30;64830;46.910;6.354;2024-03-23T13:09:50;6.82;60.30
76102;SHT30;64830;46.910;6.354;2024-03-23T13:12:16;6.89;60.29
76102;SHT30;64830;46.910;6.354;2024-03-23T13:14:44;6.85;60.19
76102;SHT30;64830;46.910;6.354;2024-03-23T13:17:10;6.83;60.96
76102;SHT30;64830;46.910;6.354;2024-03-23T13:19:35;6.75;60.27
76102;SHT30;64830;46.910;6.354;2024-03-23T13:22:01;6.67;61.28
76102;SHT30;64830;46.910;6.354;2024-03-23T13:24:27;6.73;62.80
76102;SHT30;64830;46.910;6.354;2024-03-23T13:26:54;6.78;63.15
76102;SHT30;64830;46.910;6.354;2024-03-23T13:29:20;6.86;63.00
76102;SHT30;64830;46.910;6.354;2024-03-23T13:31:49;6.89;61.32
76102;SHT30;64830;46.910;6.354;2024-03-23T13:34:16;6.87;59.97
76102;SHT30;64830;46.910;6.354;2024-03-23T13:36:45;6.89;60.54
76102;SHT30;64830;46.910;6.354;2024-03-23T13:39:11;6.86;59.93
76102;SHT30;64830;46.910;6.354;2024-03-23T13:41:44;6.90;59.73
76102;SHT30;64830;46.910;6.354;2024-03-23T13:44:11;6.82;57.98
76102;SHT30;64830;46.910;6.354;2024-03-23T13:46:41;6.85;59.97
76102;SHT30;64830;46.910;6.354;2024-03-23T13:49:24;7.08;60.35
76102;SHT30;64830;46.910;6.354;2024-03-23T13:51:49;7.15;58.91
76102;SHT30;64830;46.910;6.354;2024-03-23T13:54:15;7.15;59.17
76102;SHT30;64830;46.910;6.354;2024-03-23T13:56:40;7.18;59.27
76102;SHT30;64830;46.910;6.354;2024-03-23T13:59:06;7.27;59.33
76102;SHT30;64830;46.910;6.354;2024-03-23T14:01:32;7.27;56.44
76102;SHT30;64830;46.910;6.354;2024-03-23T14:03:57;7.30;55.67
76102;SHT30;64830;46.910;6.354;2024-03-23T14:06:22;7.30;56.10
76102;SHT30;64830;46.910;6.354;2024-03-23T14:08:49;7.36;55.75
76102;SHT30;64830;46.910;6.354;2024-03-23T14:11:18;7.51;56.18
76102;SHT30;64830;46.910;6.354;2024-03-23T14:13:43;7.65;56.97
76102;SHT30;64830;46.910;6.354;2024-03-23T14:16:09;7.70;55.78
76102;SHT30;64830;46.910;6.354;2024-03-23T14:18:34;7.63;55.44
76102;SHT30;64830;46.910;6.354;2024-03-23T14:21:00;7.59;55.34
76102;SHT30;64830;46.910;6.354;2024-03-23T14:23:30;7.55;55.22
76102;SHT30;64830;46.910;6.354;2024-03-23T14:25:58;7.51;53.45
76102;SHT30;64830;46.910;6.354;2024-03-23T14:28:24;7.49;53.85
76102;SHT30;64830;46.910;6.354;2024-03-23T14:30:50;7.41;52.29
76102;SHT30;64830;46.910;6.354;2024-03-23T14:33:16;7.35;54.98
76102;SHT30;64830;46.910;6.354;2024-03-23T14:35:42;7.35;55.27
76102;SHT30;64830;46.910;6.354;2024-03-23T14:38:07;7.38;55.33
76102;SHT30;64830;46.910;6.354;2024-03-23T14:40:33;7.42;55.79
76102;SHT30;64830;46.910;6.354;2024-03-23T14:42:58;7.48;55.63
76102;SHT30;64830;46.910;6.354;2024-03-23T14:45:24;7.47;55.94
76102;SHT30;64830;46.910;6.354;2024-03-23T14:47:53;7.38;54.52
76102;SHT30;64830;46.910;6.354;2024-03-23T14:50:18;7.24;53.85
76102;SHT30;64830;46.910;6.354;2024-03-23T14:52:45;7.14;56.03
76102;SHT30;64830;46.910;6.354;2024-03-23T14:55:11;7.17;55.93
76102;SHT30;64830;46.910;6.354;2024-03-23T14:57:37;7.15;56.45
76102;SHT30;64830;46.910;6.354;2024-03-23T15:00:07;7.04;57.10
76102;SHT30;64830;46.910;6.354;2024-03-23T15:02:33;6.99;57.92
76102;SHT30;64830;46.910;6.354;2024-03-23T15:04:59;6.90;58.79
76102;SHT30;64830;46.910;6.354;2024-03-23T15:07:25;6.89;59.04
76102;SHT30;64830;46.910;6.354;2024-03-23T15:09:50;6.87;58.95
76102;SHT30;64830;46.910;6.354;2024-03-23T15:12:16;6.78;59.45
76102;SHT30;64830;46.910;6.354;2024-03-23T15:14:41;6.75;60.06
76102;SHT30;64830;46.910;6.354;2024-03-23T15:17:06;6.79;60.00
76102;SHT30;64830;46.910;6.354;2024-03-23T15:19:34;6.90;61.21
76102;SHT30;64830;46.910;6.354;2024-03-23T15:21:59;7.11;61.18
76102;SHT30;64830;46.910;6.354;2024-03-23T15:24:25;7.25;60.07
76102;SHT30;64830;46.910;6.354;2024-03-23T15:26:51;7.17;60.52
76102;SHT30;64830;46.910;6.354;2024-03-23T15:29:17;7.07;60.49
76102;SHT30;64830;46.910;6.354;2024-03-23T15:31:43;7.00;60.48
76102;SHT30;64830;46.910;6.354;2024-03-23T15:34:08;6.95;60.58
76102;SHT30;64830;46.910;6.354;2024-03-23T15:36:37;6.80;61.10
76102;SHT30;64830;46.910;6.354;2024-03-23T15:39:04;6.61;61.86
76102;SHT30;64830;46.910;6.354;2024-03-23T15:41:30;6.49;64.54
76102;SHT30;64830;46.910;6.354;2024-03-23T15:43:56;6.13;70.00
76102;SHT30;64830;46.910;6.354;2024-03-23T15:46:21;5.88;70.97
76102;SHT30;64830;46.910;6.354;2024-03-23T15:48:47;5.69;72.42
76102;SHT30;64830;46.910;6.354;2024-03-23T15:51:13;5.52;72.59
76102;SHT30;64830;46.910;6.354;2024-03-23T15:53:39;5.38;74.10
76102;SHT30;64830;46.910;6.354;2024-03-23T15:56:05;5.37;74.00
76102;SHT30;64830;46.910;6.354;2024-03-23T15:58:32;5.34;73.26
76102;SHT30;64830;46.910;6.354;2024-03-23T16:01:02;5.43;74.30
76102;SHT30;64830;46.910;6.354;2024-03-23T16:03:28;5.52;74.48
76102;SHT30;64830;46.910;6.354;2024-03-23T16:06:04;5.51;73.57
76102;SHT30;64830;46.910;6.354;2024-03-23T16:08:30;5.51;72.59
76102;SHT30;64830;46.910;6.354;2024-03-23T16:11:06;5.45;72.88
76102;SHT30;64830;46.910;6.354;2024-03-23T16:13:32;5.27;73.14
76102;SHT30;64830;46.910;6.354;2024-03-23T16:15:59;4.99;85.17
76102;SHT30;64830;46.910;6.354;2024-03-23T16:18:25;4.62;88.00
76102;SHT30;64830;46.910;6.354;2024-03-23T16:20:58;4.21;88.65
76102;SHT30;64830;46.910;6.354;2024-03-23T16:23:24;3.89;89.56
76102;SHT30;64830;46.910;6.354;2024-03-23T16:25:50;3.68;90.05
76102;SHT30;64830;46.910;6.354;2024-03-23T16:28:28;3.63;89.80
76102;SHT30;64830;46.910;6.354;2024-03-23T16:30:58;3.57;90.14
76102;SHT30;64830;46.910;6.354;2024-03-23T16:33:24;3.53;89.85
76102;SHT30;64830;46.910;6.354;2024-03-23T16:36:06;3.53;90.02
76102;SHT30;64830;46.910;6.354;2024-03-23T16:38:36;3.64;89.65
76102;SHT30;64830;46.910;6.354;2024-03-23T16:41:09;3.68;89.67
76102;SHT30;64830;46.910;6.354;2024-03-23T16:43:38;3.77;90.03
76102;SHT30;64830;46.910;6.354;2024-03-23T16:46:08;3.86;89.96
76102;SHT30;64830;46.910;6.354;2024-03-23T16:48:37;3.91;89.90
76102;SHT30;64830;46.910;6.354;2024-03-23T16:51:06;4.02;90.08
76102;SHT30;64830;46.910;6.354;2024-03-23T16:53:32;4.10;90.02
76102;SHT30;64830;46.910;6.354;2024-03-23T16:56:05;4.20;90.06